sensor_id;sensor_type;location;lat;lon;timestamp;temperature;humidity
32728;DHT22;55292;51.844;19.246;2023-05-07T00:03:00;6.30;99.90
32728;DHT22;55292;51.844;19.246;2023-05-07T00:08:03;6.30;99.90
32728;DHT22;55292;51.844;19.246;2023-05-07T00:13:06;6.20;99.90
32728;DHT22;55292;51.844;19.246;2023-05-07T00:18:09;6.20;99.90
32728;DHT22;55292;51.844;19.246;2023-05-07T00:23:11;6.20;99.90
32728;DHT22;55292;51.844;19.246;2023-05-07T00:28:14;6.20;99.90
32728;DHT22;55292;51.844;19.246;2023-05-07T00:33:16;6.20;99.90
32728;DHT22;55292;51.844;19.246;2023-05-07T00:38:19;6.20;99.90
32728;DHT22;55292;51.844;19.246;2023-05-07T00:43:22;6.10;99.90
32728;DHT22;55292;51.844;19.246;2023-05-07T00:48:25;6.10;99.90
32728;DHT22;55292;51.844;19.246;2023-05-07T00:53:28;6.20;99.90
32728;DHT22;55292;51.844;19.246;2023-05-07T00:58:31;6.20;99.90
32728;DHT22;55292;51.844;19.246;2023-05-07T01:03:33;6.10;99.90
32728;DHT22;55292;51.844;19.246;2023-05-07T01:08:36;6.10;99.90
32728;DHT22;55292;51.844;19.246;2023-05-07T01:13:42;6.10;99.90
32728;DHT22;55292;51.844;19.246;2023-05-07T01:18:45;6.10;99.90
32728;DHT22;55292;51.844;19.246;2023-05-07T01:23:50;6.00;99.90
32728;DHT22;55292;51.844;19.246;2023-05-07T01:28:53;6.10;99.90
32728;DHT22;55292;51.844;19.246;2023-05-07T01:33:56;6.10;99.90
32728;DHT22;55292;51.844;19.246;2023-05-07T01:38:59;6.00;99.90
32728;DHT22;55292;51.844;19.246;2023-05-07T01:44:03;6.10;99.90
32728;DHT22;55292;51.844;19.246;2023-05-07T01:49:07;6.00;99.90
32728;DHT22;55292;51.844;19.246;2023-05-07T01:54:10;6.00;99.90
32728;DHT22;55292;51.844;19.246;2023-05-07T01:59:12;6.00;99.90
32728;DHT22;55292;51.844;19.246;2023-05-07T02:04:15;5.90;99.90
32728;DHT22;55292;51.844;19.246;2023-05-07T02:09:19;5.90;99.90
32728;DHT22;55292;51.844;19.246;2023-05-07T02:14:24;5.90;99.90
32728;DHT22;55292;51.844;19.246;2023-05-07T02:19:28;5.90;99.90
32728;DHT22;55292;51.844;19.246;2023-05-07T02:24:30;5.90;99.90
32728;DHT22;55292;51.844;19.246;2023-05-07T02:29:33;5.90;99.90
32728;DHT22;55292;51.844;19.246;2023-05-07T02:34:36;5.80;99.90
32728;DHT22;55292;51.844;19.246;2023-05-07T02:39:39;5.90;99.90
32728;DHT22;55292;51.844;19.246;2023-05-07T02:44:41;5.90;99.90
32728;DHT22;55292;51.844;19.246;2023-05-07T02:49:45;5.80;99.90
32728;DHT22;55292;51.844;19.246;2023-05-07T02:54:48;5.80;99.90
32728;DHT22;55292;51.844;19.246;2023-05-07T02:59:51;5.80;99.90
32728;DHT22;55292;51.844;19.246;2023-05-07T03:04:55;5.80;99.90
32728;DHT22;55292;51.844;19.246;2023-05-07T03:09:58;5.80;99.90
32728;DHT22;55292;51.844;19.246;2023-05-07T03:15:00;5.80;99.90
32728;DHT22;55292;51.844;19.246;2023-05-07T03:20:04;5.70;99.90
32728;DHT22;55292;51.844;19.246;2023-05-07T03:25:08;5.70;99.90
32728;DHT22;55292;51.844;19.246;2023-05-07T03:30:11;5.60;99.90
32728;DHT22;55292;51.844;19.246;2023-05-07T03:35:15;5.60;99.90
32728;DHT22;55292;51.844;19.246;2023-05-07T03:40:17;5.60;99.90
32728;DHT22;55292;51.844;19.246;2023-05-07T03:45:24;5.60;99.90
32728;DHT22;55292;51.844;19.246;2023-05-07T03:50:37;5.70;99.90
32728;DHT22;55292;51.844;19.246;2023-05-07T03:55:41;5.70;99.90
32728;DHT22;55292;51.844;19.246;2023-05-07T04:00:43;5.70;99.90
32728;DHT22;55292;51.844;19.246;2023-05-07T04:05:56;5.70;99.90
32728;DHT22;55292;51.844;19.246;2023-05-07T04:10:59;5.70;99.90
32728;DHT22;55292;51.844;19.246;2023-05-07T04:16:06;5.80;99.90
32728;DHT22;55292;51.844;19.246;2023-05-07T04:21:18;5.80;99.90
32728;DHT22;55292;51.844;19.246;2023-05-07T04:26:23;5.80;99.90
32728;DHT22;55292;51.844;19.246;2023-05-07T04:31:27;5.80;99.90
32728;DHT22;55292;51.844;19.246;2023-05-07T04:36:30;5.80;99.90
32728;DHT22;55292;51.844;19.246;2023-05-07T04:41:39;5.90;99.90
32728;DHT22;55292;51.844;19.246;2023-05-07T04:46:43;6.00;99.90
32728;DHT22;55292;51.844;19.246;2023-05-07T04:51:46;6.00;99.90
32728;DHT22;55292;51.844;19.246;2023-05-07T04:56:53;8.90;99.90
32728;DHT22;55292;51.844;19.246;2023-05-07T05:01:56;6.00;99.90
32728;DHT22;55292;51.844;19.246;2023-05-07T05:07:00;6.10;99.90
32728;DHT22;55292;51.844;19.246;2023-05-07T05:12:03;6.00;99.90
32728;DHT22;55292;51.844;19.246;2023-05-07T05:17:07;6.00;99.90
32728;DHT22;55292;51.844;19.246;2023-05-07T05:22:11;6.10;99.90
32728;DHT22;55292;51.844;19.246;2023-05-07T05:27:13;6.10;99.90
32728;DHT22;55292;51.844;19.246;2023-05-07T05:32:16;6.20;99.90
32728;DHT22;55292;51.844;19.246;2023-05-07T05:37:19;6.20;99.90
32728;DHT22;55292;51.844;19.246;2023-05-07T05:42:24;6.20;99.90
32728;DHT22;55292;51.844;19.246;2023-05-07T05:47:27;6.30;99.90
32728;DHT22;55292;51.844;19.246;2023-05-07T05:52:30;6.30;99.90
32728;DHT22;55292;51.844;19.246;2023-05-07T05:57:33;6.30;99.90
32728;DHT22;55292;51.844;19.246;2023-05-07T06:02:37;6.30;99.90
32728;DHT22;55292;51.844;19.246;2023-05-07T06:07:41;6.40;99.90
32728;DHT22;55292;51.844;19.246;2023-05-07T06:12:44;6.40;99.90
32728;DHT22;55292;51.844;19.246;2023-05-07T06:17:47;6.50;99.90
32728;DHT22;55292;51.844;19.246;2023-05-07T06:22:51;6.50;99.90
32728;DHT22;55292;51.844;19.246;2023-05-07T06:27:54;6.60;99.90
32728;DHT22;55292;51.844;19.246;2023-05-07T06:32:59;6.70;99.90
32728;DHT22;55292;51.844;19.246;2023-05-07T06:38:02;6.70;99.90
32728;DHT22;55292;51.844;19.246;2023-05-07T06:43:05;6.60;99.90
32728;DHT22;55292;51.844;19.246;2023-05-07T06:48:21;6.70;99.90
32728;DHT22;55292;51.844;19.246;2023-05-07T06:53:31;6.60;99.90
32728;DHT22;55292;51.844;19.246;2023-05-07T06:58:36;6.80;99.90
32728;DHT22;55292;51.844;19.246;2023-05-07T07:03:39;6.80;99.90
32728;DHT22;55292;51.844;19.246;2023-05-07T07:08:42;6.80;99.90
32728;DHT22;55292;51.844;19.246;2023-05-07T07:13:47;6.60;99.90
32728;DHT22;55292;51.844;19.246;2023-05-07T07:18:50;6.60;99.90
32728;DHT22;55292;51.844;19.246;2023-05-07T07:23:53;6.60;99.90
32728;DHT22;55292;51.844;19.246;2023-05-07T07:28:56;6.90;99.90
32728;DHT22;55292;51.844;19.246;2023-05-07T07:33:59;7.20;99.90
32728;DHT22;55292;51.844;19.246;2023-05-07T07:39:02;7.50;99.90
32728;DHT22;55292;51.844;19.246;2023-05-07T07:44:05;7.20;99.90
32728;DHT22;55292;51.844;19.246;2023-05-07T07:49:12;7.20;99.90
32728;DHT22;55292;51.844;19.246;2023-05-07T07:54:15;7.20;99.90
32728;DHT22;55292;51.844;19.246;2023-05-07T07:59:18;7.60;99.90
32728;DHT22;55292;51.844;19.246;2023-05-07T08:04:23;7.80;99.90
32728;DHT22;55292;51.844;19.246;2023-05-07T08:09:27;7.50;99.90
32728;DHT22;55292;51.844;19.246;2023-05-07T08:14:33;7.30;99.90
32728;DHT22;55292;51.844;19.246;2023-05-07T08:19:36;7.10;99.90
32728;DHT22;55292;51.844;19.246;2023-05-07T08:24:41;7.40;99.90
32728;DHT22;55292;51.844;19.246;2023-05-07T08:29:44;8.00;99.90
32728;DHT22;55292;51.844;19.246;2023-05-07T08:34:51;8.10;99.90
32728;DHT22;55292;51.844;19.246;2023-05-07T08:39:54;7.70;99.90
32728;DHT22;55292;51.844;19.246;2023-05-07T08:45:02;7.60;99.90
32728;DHT22;55292;51.844;19.246;2023-05-07T08:50:10;7.70;99.90
32728;DHT22;55292;51.844;19.246;2023-05-07T08:55:14;7.70;99.90
32728;DHT22;55292;51.844;19.246;2023-05-07T09:00:18;8.30;99.90
32728;DHT22;55292;51.844;19.246;2023-05-07T09:05:24;8.70;99.90
32728;DHT22;55292;51.844;19.246;2023-05-07T09:10:28;8.30;99.90
32728;DHT22;55292;51.844;19.246;2023-05-07T09:15:31;8.60;99.90
32728;DHT22;55292;51.844;19.246;2023-05-07T09:20:36;8.60;99.90
32728;DHT22;55292;51.844;19.246;2023-05-07T09:25:39;8.50;99.90
32728;DHT22;55292;51.844;19.246;2023-05-07T09:30:50;8.50;99.90
32728;DHT22;55292;51.844;19.246;2023-05-07T09:35:53;8.60;99.90
32728;DHT22;55292;51.844;19.246;2023-05-07T09:41:10;9.50;99.90
32728;DHT22;55292;51.844;19.246;2023-05-07T09:46:30;9.50;99.90
32728;DHT22;55292;51.844;19.246;2023-05-07T09:51:45;10.20;99.90
32728;DHT22;55292;51.844;19.246;2023-05-07T09:56:52;10.40;99.90
32728;DHT22;55292;51.844;19.246;2023-05-07T10:01:59;10.40;99.90
32728;DHT22;55292;51.844;19.246;2023-05-07T10:07:08;11.00;99.90
32728;DHT22;55292;51.844;19.246;2023-05-07T10:12:12;10.30;99.90
32728;DHT22;55292;51.844;19.246;2023-05-07T10:17:16;10.30;99.90
32728;DHT22;55292;51.844;19.246;2023-05-07T10:22:24;11.00;99.90
32728;DHT22;55292;51.844;19.246;2023-05-07T10:27:30;10.80;99.90
32728;DHT22;55292;51.844;19.246;2023-05-07T10:38:39;11.00;99.90
32728;DHT22;55292;51.844;19.246;2023-05-07T10:43:44;11.20;99.90
32728;DHT22;55292;51.844;19.246;2023-05-07T10:54:19;9.70;99.90
32728;DHT22;55292;51.844;19.246;2023-05-07T10:59:32;9.80;99.90
32728;DHT22;55292;51.844;19.246;2023-05-07T11:05:22;10.30;99.90
32728;DHT22;55292;51.844;19.246;2023-05-07T11:10:56;10.20;99.90
32728;DHT22;55292;51.844;19.246;2023-05-07T11:16:25;9.80;99.90
32728;DHT22;55292;51.844;19.246;2023-05-07T11:21:45;9.50;99.90
32728;DHT22;55292;51.844;19.246;2023-05-07T11:26:58;9.90;99.90
32728;DHT22;55292;51.844;19.246;2023-05-07T11:32:03;9.70;99.90
32728;DHT22;55292;51.844;19.246;2023-05-07T11:37:17;9.80;99.90
32728;DHT22;55292;51.844;19.246;2023-05-07T11:42:35;10.20;99.90
32728;DHT22;55292;51.844;19.246;2023-05-07T11:47:41;10.60;99.90
32728;DHT22;55292;51.844;19.246;2023-05-07T11:52:51;10.90;99.90
32728;DHT22;55292;51.844;19.246;2023-05-07T11:57:56;11.20;99.90
32728;DHT22;55292;51.844;19.246;2023-05-07T12:03:06;10.50;99.90
32728;DHT22;55292;51.844;19.246;2023-05-07T12:08:17;9.70;99.90
32728;DHT22;55292;51.844;19.246;2023-05-07T12:13:25;9.70;99.90
32728;DHT22;55292;51.844;19.246;2023-05-07T12:18:28;10.90;99.90
32728;DHT22;55292;51.844;19.246;2023-05-07T12:23:31;10.90;99.90
32728;DHT22;55292;51.844;19.246;2023-05-07T12:28:37;10.30;99.90
32728;DHT22;55292;51.844;19.246;2023-05-07T12:33:43;10.90;99.90
32728;DHT22;55292;51.844;19.246;2023-05-07T12:38:49;11.30;99.90
32728;DHT22;55292;51.844;19.246;2023-05-07T12:43:56;10.70;99.90
32728;DHT22;55292;51.844;19.246;2023-05-07T12:48:59;10.50;99.90
32728;DHT22;55292;51.844;19.246;2023-05-07T12:54:02;10.50;99.90
32728;DHT22;55292;51.844;19.246;2023-05-07T12:59:05;10.70;99.90
32728;DHT22;55292;51.844;19.246;2023-05-07T13:04:07;10.80;99.90
32728;DHT22;55292;51.844;19.246;2023-05-07T13:09:10;10.60;99.90
32728;DHT22;55292;51.844;19.246;2023-05-07T13:14:13;10.20;99.90
32728;DHT22;55292;51.844;19.246;2023-05-07T13:19:15;9.90;99.90
32728;DHT22;55292;51.844;19.246;2023-05-07T13:24:18;9.80;99.90
32728;DHT22;55292;51.844;19.246;2023-05-07T13:29:21;9.60;99.90
32728;DHT22;55292;51.844;19.246;2023-05-07T13:34:32;9.70;99.90
32728;DHT22;55292;51.844;19.246;2023-05-07T13:39:34;10.50;99.90
32728;DHT22;55292;51.844;19.246;2023-05-07T13:44:37;10.60;99.90
32728;DHT22;55292;51.844;19.246;2023-05-07T13:49:40;10.70;99.90
32728;DHT22;55292;51.844;19.246;2023-05-07T13:54:42;10.80;99.90
32728;DHT22;55292;51.844;19.246;2023-05-07T13:59:45;10.90;99.90
32728;DHT22;55292;51.844;19.246;2023-05-07T14:04:47;10.70;99.90
32728;DHT22;55292;51.844;19.246;2023-05-07T14:09:50;10.50;99.90
32728;DHT22;55292;51.844;19.246;2023-05-07T14:14:52;11.00;99.90
32728;DHT22;55292;51.844;19.246;2023-05-07T14:19:57;11.00;99.90
32728;DHT22;55292;51.844;19.246;2023-05-07T14:25:00;11.50;99.90
32728;DHT22;55292;51.844;19.246;2023-05-07T14:30:08;11.40;99.90
32728;DHT22;55292;51.844;19.246;2023-05-07T14:35:11;11.30;99.90
32728;DHT22;55292;51.844;19.246;2023-05-07T14:40:14;11.10;99.90
32728;DHT22;55292;51.844;19.246;2023-05-07T14:45:17;11.10;99.90
32728;DHT22;55292;51.844;19.246;2023-05-07T14:50:20;10.90;99.90
32728;DHT22;55292;51.844;19.246;2023-05-07T14:55:23;10.60;99.90
32728;DHT22;55292;51.844;19.246;2023-05-07T15:00:25;10.80;99.90
32728;DHT22;55292;51.844;19.246;2023-05-07T15:05:28;11.20;99.90
32728;DHT22;55292;51.844;19.246;2023-05-07T15:10:31;11.10;99.90
32728;DHT22;55292;51.844;19.246;2023-05-07T15:15:34;11.00;99.90
32728;DHT22;55292;51.844;19.246;2023-05-07T15:20:38;10.90;99.90
32728;DHT22;55292;51.844;19.246;2023-05-07T15:25:41;10.90;99.90
32728;DHT22;55292;51.844;19.246;2023-05-07T15:30:43;10.60;99.90
32728;DHT22;55292;51.844;19.246;2023-05-07T15:35:46;10.60;99.90
32728;DHT22;55292;51.844;19.246;2023-05-07T15:40:49;10.70;99.90
32728;DHT22;55292;51.844;19.246;2023-05-07T15:45:52;10.90;99.90
32728;DHT22;55292;51.844;19.246;2023-05-07T15:50:55;10.90;99.90
32728;DHT22;55292;51.844;19.246;2023-05-07T15:55:58;11.00;99.90
32728;DHT22;55292;51.844;19.246;2023-05-07T16:01:01;10.90;99.90
32728;DHT22;55292;51.844;19.246;2023-05-07T16:06:04;10.60;99.90
32728;DHT22;55292;51.844;19.246;2023-05-07T16:11:07;10.40;99.90
32728;DHT22;55292;51.844;19.246;2023-05-07T16:16:09;10.20;99.90
32728;DHT22;55292;51.844;19.246;2023-05-07T16:21:12;10.00;99.90
32728;DHT22;55292;51.844;19.246;2023-05-07T16:26:15;9.90;99.90
32728;DHT22;55292;51.844;19.246;2023-05-07T16:31:18;9.90;99.90
32728;DHT22;55292;51.844;19.246;2023-05-07T16:36:21;9.70;99.90
32728;DHT22;55292;51.844;19.246;2023-05-07T16:41:24;9.70;99.90
32728;DHT22;55292;51.844;19.246;2023-05-07T16:46:27;9.80;99.90
32728;DHT22;55292;51.844;19.246;2023-05-07T16:51:29;9.70;99.90
32728;DHT22;55292;51.844;19.246;2023-05-07T16:56:32;10.30;99.90
32728;DHT22;55292;51.844;19.246;2023-05-07T17:01:34;10.60;99.90
32728;DHT22;55292;51.844;19.246;2023-05-07T17:06:38;10.70;99.90
32728;DHT22;55292;51.844;19.246;2023-05-07T17:11:41;10.60;99.90
32728;DHT22;55292;51.844;19.246;2023-05-07T17:16:43;10.80;99.90
32728;DHT22;55292;51.844;19.246;2023-05-07T17:21:46;10.20;99.90
32728;DHT22;55292;51.844;19.246;2023-05-07T17:26:48;9.60;99.90
32728;DHT22;55292;51.844;19.246;2023-05-07T17:31:51;9.20;99.90
32728;DHT22;55292;51.844;19.246;2023-05-07T17:36:53;9.00;99.90
32728;DHT22;55292;51.844;19.246;2023-05-07T17:41:57;8.80;99.90
32728;DHT22;55292;51.844;19.246;2023-05-07T17:46:59;8.50;99.90
32728;DHT22;55292;51.844;19.246;2023-05-07T17:52:02;8.30;99.90
32728;DHT22;55292;51.844;19.246;2023-05-07T17:57:05;7.10;99.90
32728;DHT22;55292;51.844;19.246;2023-05-07T18:02:08;7.50;99.90
32728;DHT22;55292;51.844;19.246;2023-05-07T18:07:11;7.00;99.90
32728;DHT22;55292;51.844;19.246;2023-05-07T18:12:13;6.60;99.90
32728;DHT22;55292;51.844;19.246;2023-05-07T18:17:16;6.30;99.90
32728;DHT22;55292;51.844;19.246;2023-05-07T18:22:18;5.90;99.90
32728;DHT22;55292;51.844;19.246;2023-05-07T18:27:21;5.50;99.90
32728;DHT22;55292;51.844;19.246;2023-05-07T18:32:23;5.00;99.90
32728;DHT22;55292;51.844;19.246;2023-05-07T18:37:26;4.50;99.90
32728;DHT22;55292;51.844;19.246;2023-05-07T18:42:29;4.50;99.90
32728;DHT22;55292;51.844;19.246;2023-05-07T18:47:35;4.40;99.90
32728;DHT22;55292;51.844;19.246;2023-05-07T18:52:37;4.10;99.90
32728;DHT22;55292;51.844;19.246;2023-05-07T18:57:40;3.80;99.90
32728;DHT22;55292;51.844;19.246;2023-05-07T19:02:43;3.60;99.90
32728;DHT22;55292;51.844;19.246;2023-05-07T19:07:47;3.40;99.90
32728;DHT22;55292;51.844;19.246;2023-05-07T19:12:49;3.10;99.90
32728;DHT22;55292;51.844;19.246;2023-05-07T19:17:56;2.50;99.90
32728;DHT22;55292;51.844;19.246;2023-05-07T19:22:59;2.50;99.90
32728;DHT22;55292;51.844;19.246;2023-05-07T19:28:01;2.40;99.90
32728;DHT22;55292;51.844;19.246;2023-05-07T19:33:05;2.50;99.90
32728;DHT22;55292;51.844;19.246;2023-05-07T19:38:07;2.40;99.90
32728;DHT22;55292;51.844;19.246;2023-05-07T19:43:10;2.10;99.90
32728;DHT22;55292;51.844;19.246;2023-05-07T19:48:13;1.80;99.90
32728;DHT22;55292;51.844;19.246;2023-05-07T19:53:16;1.60;99.90
32728;DHT22;55292;51.844;19.246;2023-05-07T19:58:19;1.70;99.90
32728;DHT22;55292;51.844;19.246;2023-05-07T20:03:22;1.60;99.90
32728;DHT22;55292;51.844;19.246;2023-05-07T20:08:26;1.50;99.90
32728;DHT22;55292;51.844;19.246;2023-05-07T20:13:31;1.50;99.90
32728;DHT22;55292;51.844;19.246;2023-05-07T20:18:34;1.10;99.90
32728;DHT22;55292;51.844;19.246;2023-05-07T20:43:49;1.20;99.90
32728;DHT22;55292;51.844;19.246;2023-05-07T20:53:54;0.60;99.90
32728;DHT22;55292;51.844;19.246;2023-05-07T20:58:57;0.50;99.90
32728;DHT22;55292;51.844;19.246;2023-05-07T21:09:03;0.50;99.90
32728;DHT22;55292;51.844;19.246;2023-05-07T21:24:12;0.50;99.90
32728;DHT22;55292;51.844;19.246;2023-05-07T21:29:14;0.30;99.90
32728;DHT22;55292;51.844;19.246;2023-05-07T21:34:18;0.10;99.90
32728;DHT22;55292;51.844;19.246;2023-05-07T21:39:23;0.00;99.90
32728;DHT22;55292;51.844;19.246;2023-05-07T21:44:28;0.20;99.90
32728;DHT22;55292;51.844;19.246;2023-05-07T21:49:31;0.20;99.90
32728;DHT22;55292;51.844;19.246;2023-05-07T22:19:48;-0.40;99.90
32728;DHT22;55292;51.844;19.246;2023-05-07T22:29:54;-0.40;99.90
32728;DHT22;55292;51.844;19.246;2023-05-07T22:40:00;-0.50;99.90
32728;DHT22;55292;51.844;19.246;2023-05-07T22:50:06;-0.40;99.90
32728;DHT22;55292;51.844;19.246;2023-05-07T22:55:09;-0.50;99.90
32728;DHT22;55292;51.844;19.246;2023-05-07T23:00:12;-0.30;99.90
32728;DHT22;55292;51.844;19.246;2023-05-07T23:25:27;-0.70;99.90
32728;DHT22;55292;51.844;19.246;2023-05-07T23:30:31;-0.90;99.90
32728;DHT22;55292;51.844;19.246;2023-05-07T23:40:36;-0.90;99.90
32728;DHT22;55292;51.844;19.246;2023-05-07T23:45:39;-0.90;99.90
